Menu Close Menu
Station Historical Data
Daily Summary for May 14, 2017 Units:  Metric    English   Both
« Previous Day
Next Day »
Daily Weekly Monthly Yearly Custom
  High: Low: Average:
Temperature: 27.8 °C 13 °C 20 °C
Dew Point: 15.1 °C 10.7 °C 12.7 °C
Humidity: 92% 37% 66%
Wind Speed: 1.6km/h 0km/h 0km/h
Wind Gust: 4.8km/h - -
Wind- - WSW
Pressure: 1017.2 hPa 1011.4 hPa -
Precipitation: 0 mm    
Historical Graphs
 
 
Tabular Data for May 14, 2017
Time Temperature Dew Point Pressure Wind Wind Speed Wind Gust Humidity Rainfall Rate (Hourly) solar Conditions
00:00 16.6 °C 11.7 °C 1011.4 hPa Calm   1.6 km/h 73% 0 mm WeatherDisplay:10.37 W/m2 SCT
00:15 16.3 °C 11.7 °C 1011.7 hPa Calm     74% 0 mm WeatherDisplay:10.37 W/m2 SCT
00:30 16.2 °C 11.6 °C 1011.7 hPa Calm   1.6 km/h 74% 0 mm WeatherDisplay:10.37 W/m2 SCT
00:45 15.9 °C 11.5 °C 1012.1 hPa Calm     75% 0 mm WeatherDisplay:10.37 W/m2 SCT
01:00 15.6 °C 11.5 °C 1012.1 hPa Calm     77% 0 mm WeatherDisplay:10.37 W/m2 SCT
01:15 15.2 °C 11.6 °C 1012.4 hPa Calm     79% 0 mm WeatherDisplay:10.37 W/m2 SCT
01:30 14.9 °C 11.7 °C 1012.4 hPa Calm     81% 0 mm WeatherDisplay:10.37 W/m2 SCT
01:45 14.7 °C 11.5 °C 1012.4 hPa Calm     81% 0 mm WeatherDisplay:10.37 W/m2 SCT
02:00 14.7 °C 11.7 °C 1012.4 hPa Calm   1.6 km/h 82% 0 mm WeatherDisplay:10.37 W/m2 SCT
02:15 14.8 °C 11.8 °C 1012.4 hPa Calm   1.6 km/h 82% 0 mm WeatherDisplay:10.37 W/m2 SCT
02:30 14.7 °C 11.7 °C 1012.4 hPa Calm     82% 0 mm WeatherDisplay:10.37 W/m2 SCT
02:45 14.4 °C 11.6 °C 1012.4 hPa Calm     83% 0 mm WeatherDisplay:10.37 W/m2 SCT
03:00 14.1 °C 11.4 °C 1012.4 hPa Calm     84% 0 mm WeatherDisplay:10.37 W/m2 SCT
03:15 13.8 °C 11.3 °C 1012.4 hPa Calm     85% 0 mm WeatherDisplay:10.37 W/m2 SCT
03:30 13.6 °C 11.3 °C 1012.4 hPa Calm     86% 0 mm WeatherDisplay:10.37 W/m2 SCT
03:45 13.4 °C 11.2 °C 1012.8 hPa Calm     86% 0 mm WeatherDisplay:10.37 W/m2 SCT
04:00 13 °C 10.7 °C 1012.8 hPa Calm     86% 0 mm WeatherDisplay:10.37 W/m2 SCT
04:15 13 °C 10.7 °C 1012.8 hPa Calm     86% 0 mm WeatherDisplay:10.37 W/m2 SCT
04:30 13 °C 10.7 °C 1012.8 hPa Calm     86% 0 mm WeatherDisplay:10.37 W/m2 SCT
04:45 13 °C 10.7 °C 1012.8 hPa Calm     86% 0 mm WeatherDisplay:10.37 W/m2 SCT
05:00 13 °C 10.7 °C 1013.1 hPa Calm     86% 0 mm WeatherDisplay:10.37 W/m2 SCT
05:15 13 °C 10.7 °C 1013.1 hPa Calm     86% 0 mm WeatherDisplay:10.37 W/m2 SCT
05:30 13 °C 10.7 °C 1013.4 hPa Calm     86% 0 mm WeatherDisplay:10.37 W/m2 SCT
05:45 13 °C 10.7 °C 1013.4 hPa Calm     86% 0 mm WeatherDisplay:10.37 W/m2 SCT
06:00 13 °C 10.7 °C 1013.8 hPa Calm     86% 0 mm WeatherDisplay:10.37 W/m2 SCT
06:15 13 °C 10.7 °C 1014.1 hPa Calm     86% 0 mm WeatherDisplay:10.37 W/m2 SCT
06:30 13 °C 10.7 °C 1014.1 hPa Calm     86% 0 mm WeatherDisplay:10.37 W/m2 SCT
06:45 13 °C 10.7 °C 1014.1 hPa Calm     86% 0 mm WeatherDisplay:10.37 W/m2 SCT
07:00 13 °C 10.7 °C 1014.4 hPa Calm     86% 0 mm WeatherDisplay:10.37 W/m2 SCT
07:15 13 °C 10.7 °C 1014.8 hPa Calm     86% 0 mm WeatherDisplay:10.37 W/m2 SCT
07:30 13 °C 10.7 °C 1015.1 hPa Calm     86% 0 mm WeatherDisplay:10.37 W/m2 SCT
07:45 13.4 °C 12.2 °C 1015.5 hPa Calm     92% 0 mm WeatherDisplay:10.37 W/m2 SCT
08:00 13.9 °C 12.7 °C 1015.5 hPa Calm     92% 0 mm WeatherDisplay:10.37 W/m2 SCT
08:15 14.7 °C 13.3 °C 1015.5 hPa Calm     91% 0 mm WeatherDisplay:10.37 W/m2 SCT
08:30 15.7 °C 14.1 °C 1015.8 hPa Calm   1.6 km/h 90% 0 mm WeatherDisplay:10.37 W/m2 SCT
08:45 16.8 °C 14.6 °C 1016.1 hPa Calm   1.6 km/h 87% 0 mm WeatherDisplay:10.37 W/m2 SCT
09:00 17.8 °C 14.4 °C 1016.5 hPa Calm   3.2 km/h 81% 0 mm WeatherDisplay:10.37 W/m2 SCT
09:15 18.8 °C 14.4 °C 1016.8 hPa Calm   3.2 km/h 76% 0 mm WeatherDisplay:10.37 W/m2 SCT
09:30 19.3 °C 13.5 °C 1016.8 hPa Calm   1.6 km/h 69% 0 mm WeatherDisplay:10.37 W/m2 SCT
09:45 19.8 °C 13.6 °C 1016.8 hPa Calm   3.2 km/h 67% 0 mm WeatherDisplay:10.37 W/m2 SCT
10:00 20.3 °C 12.6 °C 1017.2 hPa NNW 1.6 km/h 3.2 km/h 61% 0 mm WeatherDisplay:10.37 W/m2 SCT
10:15 21 °C 13.2 °C 1017.2 hPa Calm   3.2 km/h 61% 0 mm WeatherDisplay:10.37 W/m2 SCT
10:30 21.5 °C 12.9 °C 1017.2 hPa Calm   1.6 km/h 58% 0 mm WeatherDisplay:10.37 W/m2 SCT
10:45 22.1 °C 13.2 °C 1017.2 hPa Calm   1.6 km/h 57% 0 mm WeatherDisplay:10.37 W/m2 SCT
11:00 22.3 °C 13.2 °C 1017.2 hPa Calm   3.2 km/h 56% 0 mm WeatherDisplay:10.37 W/m2 SCT
11:15 22.6 °C 12.5 °C 1017.2 hPa Calm   1.6 km/h 53% 0 mm WeatherDisplay:10.37 W/m2 SCT
11:30 22.8 °C 12.7 °C 1017.2 hPa Calm   1.6 km/h 53% 0 mm WeatherDisplay:10.37 W/m2 SCT
11:45 23.1 °C 13.3 °C 1017.2 hPa Calm   1.6 km/h 54% 0 mm WeatherDisplay:10.37 W/m2 SCT
12:00 23.4 °C 12.7 °C 1016.8 hPa NW 1.6 km/h 3.2 km/h 51% 0 mm WeatherDisplay:10.37 W/m2 SCT
12:15 23.4 °C 13.3 °C 1016.8 hPa Calm   3.2 km/h 53% 0 mm WeatherDisplay:10.37 W/m2 SCT
12:30 24.4 °C 13.9 °C 1016.8 hPa Calm   3.2 km/h 52% 0 mm WeatherDisplay:10.37 W/m2 SCT
12:45 24.8 °C 13.9 °C 1016.8 hPa Calm   4.8 km/h 51% 0 mm WeatherDisplay:10.37 W/m2 SCT
13:00 25.7 °C 13.8 °C 1016.8 hPa Calm   3.2 km/h 48% 0 mm WeatherDisplay:10.37 W/m2 SCT
13:15 25.9 °C 15.1 °C 1016.5 hPa Calm   3.2 km/h 51% 0 mm WeatherDisplay:10.37 W/m2 SCT
13:30 26.3 °C 15 °C 1016.5 hPa Calm   3.2 km/h 50% 0 mm WeatherDisplay:10.37 W/m2 SCT
13:45 25.9 °C 13.1 °C 1016.5 hPa Calm   3.2 km/h 45% 0 mm WeatherDisplay:10.37 W/m2 SCT
14:00 26.4 °C 13.5 °C 1016.5 hPa East 1.6 km/h 3.2 km/h 45% 0 mm WeatherDisplay:10.37 W/m2 SCT
14:15 26.2 °C 13 °C 1016.1 hPa Calm   3.2 km/h 44% 0 mm WeatherDisplay:10.37 W/m2 SCT
14:30 26.4 °C 13.9 °C 1016.1 hPa Calm   4.8 km/h 46% 0 mm WeatherDisplay:10.37 W/m2 SCT
14:45 26.3 °C 13.4 °C 1016.1 hPa Calm   3.2 km/h 45% 0 mm WeatherDisplay:10.37 W/m2 SCT
15:00 26.2 °C 14.3 °C 1015.8 hPa Calm   3.2 km/h 48% 0 mm WeatherDisplay:10.37 W/m2 SCT
15:15 26.4 °C 13.1 °C 1015.8 hPa Calm   3.2 km/h 44% 0 mm WeatherDisplay:10.37 W/m2 SCT
15:30 26 °C 13.5 °C 1015.8 hPa Calm   3.2 km/h 46% 0 mm WeatherDisplay:10.37 W/m2 SCT
15:45 26.3 °C 13.7 °C 1015.5 hPa Calm   3.2 km/h 46% 0 mm WeatherDisplay:10.37 W/m2 SCT
16:00 26.3 °C 12.8 °C 1015.5 hPa Calm   3.2 km/h 43% 0 mm WeatherDisplay:10.37 W/m2 SCT
16:15 26.3 °C 12.1 °C 1015.1 hPa Calm   3.2 km/h 41% 0 mm WeatherDisplay:10.37 W/m2 SCT
16:30 26.6 °C 12.9 °C 1015.1 hPa Calm   3.2 km/h 43% 0 mm WeatherDisplay:10.37 W/m2 SCT
16:45 26.8 °C 12.5 °C 1014.8 hPa Calm   1.6 km/h 41% 0 mm WeatherDisplay:10.37 W/m2 SCT
17:00 26.8 °C 12.8 °C 1014.8 hPa Calm   1.6 km/h 42% 0 mm WeatherDisplay:10.37 W/m2 SCT
17:15 27.8 °C 12.6 °C 1014.8 hPa Calm   1.6 km/h 39% 0 mm WeatherDisplay:10.37 W/m2 SCT
17:30 27.3 °C 11.3 °C 1014.8 hPa Calm   1.6 km/h 37% 0 mm WeatherDisplay:10.37 W/m2 SCT
17:45 27.1 °C 11.9 °C 1014.4 hPa Calm     39% 0 mm WeatherDisplay:10.37 W/m2 SCT
18:00 26.9 °C 12.2 °C 1014.4 hPa Calm     40% 0 mm WeatherDisplay:10.37 W/m2 SCT
18:15 27 °C 12.6 °C 1014.1 hPa Calm   1.6 km/h 41% 0 mm WeatherDisplay:10.37 W/m2 SCT
18:30 25.9 °C 12.1 °C 1014.1 hPa Calm   1.6 km/h 42% 0 mm WeatherDisplay:10.37 W/m2 SCT
18:45 25.4 °C 12.3 °C 1014.1 hPa Calm   1.6 km/h 44% 0 mm WeatherDisplay:10.37 W/m2 SCT
19:00 25.1 °C 12.9 °C 1014.4 hPa Calm     47% 0 mm WeatherDisplay:10.37 W/m2 SCT
19:15 24.9 °C 14.1 °C 1014.4 hPa Calm   1.6 km/h 51% 0 mm WeatherDisplay:10.37 W/m2 SCT
19:30 24.4 °C 14.2 °C 1014.4 hPa Calm   1.6 km/h 53% 0 mm WeatherDisplay:10.37 W/m2 SCT
19:45 24.1 °C 14.2 °C 1014.4 hPa Calm   1.6 km/h 54% 0 mm WeatherDisplay:10.37 W/m2 SCT
20:00 23.7 °C 14.4 °C 1014.1 hPa Calm     56% 0 mm WeatherDisplay:10.37 W/m2 SCT
20:15 23.3 °C 14 °C 1014.4 hPa Calm   1.6 km/h 56% 0 mm WeatherDisplay:10.37 W/m2 SCT
20:30 22.8 °C 14.1 °C 1014.4 hPa Calm   1.6 km/h 58% 0 mm WeatherDisplay:10.37 W/m2 SCT
20:45 22.4 °C 14.1 °C 1014.4 hPa Calm     59% 0 mm WeatherDisplay:10.37 W/m2 SCT
21:00 22.1 °C 14.2 °C 1014.4 hPa Calm     61% 0 mm WeatherDisplay:10.37 W/m2 SCT
21:15 21.8 °C 13.9 °C 1014.4 hPa Calm     61% 0 mm WeatherDisplay:10.37 W/m2 SCT
21:30 21.3 °C 14.2 °C 1014.4 hPa Calm     64% 0 mm WeatherDisplay:10.37 W/m2 SCT
21:45 20.8 °C 14.2 °C 1014.4 hPa Calm     66% 0 mm WeatherDisplay:10.37 W/m2 SCT
22:00 20.2 °C 14.3 °C 1014.8 hPa Calm     69% 0 mm WeatherDisplay:10.37 W/m2 SCT
22:15 19.8 °C 14.4 °C 1014.8 hPa Calm     71% 0 mm WeatherDisplay:10.37 W/m2 SCT
22:30 19.4 °C 14.4 °C 1015.1 hPa Calm     73% 0 mm WeatherDisplay:10.37 W/m2 SCT
22:45 19.1 °C 14.6 °C 1015.1 hPa Calm     75% 0 mm WeatherDisplay:10.37 W/m2 SCT
23:00 18.7 °C 14.3 °C 1015.1 hPa Calm     76% 0 mm WeatherDisplay:10.37 W/m2 SCT
23:15 18.3 °C 14.4 °C 1015.5 hPa Calm     78% 0 mm WeatherDisplay:10.37 W/m2 SCT
23:30 18.1 °C 14.4 °C 1015.5 hPa Calm     79% 0 mm WeatherDisplay:10.37 W/m2 SCT
23:45 17.9 °C 14.4 °C 1015.5 hPa Calm     80% 0 mm WeatherDisplay:10.37 W/m2 SCT
Piedmont Bend
Compliments of Weather Underground - 4 mb